Domov               UVHVVR             MKGP            O straneh              
ZDRAVSTVENO VARSTVO RASTLIN
  MREŽA AGROMET. POSTAJ
 ► PROGNOSTIČNA OBVESTILA
AGROMETEOROLOŠKI PODATKI -
ARSO
OBVLADOVANJE TVEGANJ ZARADI
NEUGODNIH VREMENSKIH RAZMER
  ► NARAVNE NESREČE
  ► SUŠA/MOČA
  ► NAMAKANJE
  ► ŽLED (gozdarstvo)
KARTOGRAFSKI PRIKAZI
SPLETNE POVEZAVE
PROJEKTI IN PUBLIKACIJE

AGROMETEOROLOŠKA MREŽA: VREMENSKE POSTAJE IN FENOLOŠKA OPAZOVANJA

Pregled podatkov za lokacijo Črnomelj, meteorološka postaja 859096

Pregled senzorjev na lokaciji

ID Ime Zadnja
vrednost
Datum
zadnje
spremembe
Tip
senzorja
4080 Temperatura 2 m ( °C) 18,96 °C 25.6.2017 20:45 50YA
4081 Relativna vlaga 2 m (% RH) 86,23 % RH 25.6.2017 20:45 50YA
4082 Omočenost lista (U) 10 U 25.6.2017 20:45 A730WET
4083 Padavine 0.2 mm (mm) 0 mm 25.6.2017 20:45 Rain-O-Matic

Pregled podatkov zadnjih 24 ur

Zap.
št.
Datum in čas Črnomelj
Omočenost
lista
Padavine
0.2
mm
Relativna
vlaga
2
m
Temperatura
2
m
0 25.6.2017 20:00 10 0 86,23 18,96
1 25.6.2017 19:30 10 0 87,09 18,99
2 25.6.2017 19:00 10 0 85,24 19,15
3 25.6.2017 18:30 10 0,6 84,24 18,63
4 25.6.2017 18:00 10 0,2 85,28 18,43
5 25.6.2017 17:30 10 0,4 65,66 22,95
6 25.6.2017 17:00 0 0 57,35 27,09
7 25.6.2017 16:30 0 0 66,16 27,7
8 25.6.2017 16:00 0 0 58,8 28,89
9 25.6.2017 15:30 0 0 54,92 30,53
10 25.6.2017 15:00 0 0 54,93 30,42
11 25.6.2017 14:30 0 0 53,58 31,05
12 25.6.2017 14:00 0 0 54,24 30,84
13 25.6.2017 13:30 0 0 53,22 30,98
14 25.6.2017 13:00 0 0 52,88 30,37
15 25.6.2017 12:30 0 0 50,43 31,11
16 25.6.2017 12:00 0 0 50,91 30,46
17 25.6.2017 11:30 0 0 51,6 30,51
18 25.6.2017 11:00 0 0 51,92 29,73
19 25.6.2017 10:30 0 0 51,15 29,52
20 25.6.2017 10:00 0 0 55,95 27,4
21 25.6.2017 09:30 0 0 54,56 27,86
22 25.6.2017 09:00 0 0 56,1 28,01
23 25.6.2017 08:30 0 0 59,08 26,81
24 25.6.2017 08:00 0 0 60,91 26,76
25 25.6.2017 07:30 0 0 61,89 26,05
26 25.6.2017 07:00 0 0 64,82 25,13
27 25.6.2017 06:30 0 0 63,16 24,52
28 25.6.2017 06:00 0 0 68,74 22,21
29 25.6.2017 05:30 0 0 72,71 21,62
30 25.6.2017 05:00 0 0 70,57 21,25
31 25.6.2017 04:30 0 0 67,55 21,79
32 25.6.2017 04:00 0 0 57,98 23,51
33 25.6.2017 03:30 0 0 56,13 24,08
34 25.6.2017 03:00 0 0 53,21 24,84
35 25.6.2017 02:30 0 0 54,41 24,54
36 25.6.2017 02:00 0 0 61,65 23,17
37 25.6.2017 01:30 0 0 54,34 24,92
38 25.6.2017 01:00 0 0 52,14 25,39
39 25.6.2017 00:30 0 0 51,73 25,41
40 25.6.2017 00:00 0 0 51,52 25,46
41 24.6.2017 23:30 0 0 51,92 25,44
42 24.6.2017 23:00 0 0 55,78 24,77
43 24.6.2017 22:30 0 0 57,15 24,78
44 24.6.2017 22:00 0 0 61,36 24,32
45 24.6.2017 21:30 0 0 64,82 23,95
© 2011 Ministrstvo za kmetijstvo, gozdarstvo in prehrano. Vse pravice pridržane.